Peru, Indiana
Current Conditions -  °F | °C
As of 8:58 PM on Thursday 20 Nov 2014 (Local Time) from KGUS Reporting Station
Clear Clear  
Wind Chill:   Ceiling: Unl
Heat Index: 20°   Visibility: 10mi
Dew Point: 13°   Wind: 10mph
Humidity: 73%   Direction: 300°WNW
Pressure: 30.18"   Gusts: NA
Location:  40.75°N, 86.07°W
Report Text: KGUS 210158Z AUTO 30009KT 10SM CLR M06/M11 A3018 RMK AO2 SLP236 T10641106
Loading
Personal Weather Stations






























Interactive Weather Map New forecast layout! Learn more

10-Day Weather Forecast

Advertisements
Track Severe Weather on mobile